createdAt,value
2023-01-05T00:01:06.336Z,97967.19
2023-01-05T00:03:33.832Z,97959.56
2023-01-05T00:06:08.570Z,97965.78
2023-01-05T00:08:37.763Z,97958.47
2023-01-05T00:11:38.930Z,97941.72
2023-01-05T00:14:25.351Z,97955.19
2023-01-05T00:17:10.913Z,97945.38
2023-01-05T00:19:55.663Z,97937.72
2023-01-05T00:22:38.780Z,97928.25
2023-01-05T00:25:17.200Z,97943.91
2023-01-05T00:27:46.074Z,97927.69
2023-01-05T00:30:15.212Z,97940.28
2023-01-05T00:32:42.993Z,97952.28
2023-01-05T00:35:11.087Z,97947.16
2023-01-05T00:37:40.732Z,97925.91
2023-01-05T00:40:12.571Z,97918.06
2023-01-05T00:42:39.382Z,97917.69
2023-01-05T00:45:12.097Z,97917.16
2023-01-05T00:47:38.756Z,97933.00
2023-01-05T00:50:07.717Z,97915.34
2023-01-05T00:52:34.313Z,97925.16
2023-01-05T00:55:00.955Z,97934.81
2023-01-05T00:57:27.543Z,97951.75
2023-01-05T00:59:54.281Z,97959.22
2023-01-05T01:02:21.220Z,97948.66
2023-01-05T01:04:47.991Z,97953.19
2023-01-05T01:07:14.605Z,97941.19
2023-01-05T01:09:41.465Z,97949.38
2023-01-05T01:12:08.065Z,97948.66
2023-01-05T01:14:34.641Z,97952.31
2023-01-05T01:17:01.363Z,97948.09
2023-01-05T01:19:28.463Z,97945.34
2023-01-05T01:21:55.044Z,97935.00
2023-01-05T01:24:24.767Z,97943.91
2023-01-05T01:26:51.611Z,97937.16
2023-01-05T01:29:18.318Z,97954.63
2023-01-05T01:31:47.786Z,97944.28
2023-01-05T01:34:14.628Z,97929.34
2023-01-05T01:36:41.444Z,97928.97
2023-01-05T01:39:08.386Z,97920.06
2023-01-05T01:41:35.097Z,97924.06
2023-01-05T01:44:01.797Z,97926.97
2023-01-05T01:46:28.696Z,97932.63
2023-01-05T01:49:00.556Z,97929.91
2023-01-05T01:51:38.097Z,97927.00
2023-01-05T01:54:09.148Z,97929.34
2023-01-05T01:56:42.773Z,97907.88
2023-01-05T01:59:11.462Z,97917.72
2023-01-05T02:01:38.125Z,97917.88
2023-01-05T02:04:06.036Z,97897.31
2023-01-05T02:06:32.710Z,97894.03
2023-01-05T02:08:59.590Z,97876.56
2023-01-05T02:12:07.145Z,97882.97
2023-01-05T02:15:09.293Z,97890.41
2023-01-05T02:18:22.808Z,97879.66
2023-01-05T02:21:03.987Z,97872.41
2023-01-05T02:24:09.707Z,97857.28
2023-01-05T02:27:26.561Z,97866.56
2023-01-05T02:30:47.169Z,97860.19
2023-01-05T02:33:31.486Z,97850.34
2023-01-05T02:36:14.260Z,97827.81
2023-01-05T02:38:46.995Z,97826.00
2023-01-05T02:41:22.966Z,97811.81
2023-01-05T02:43:50.008Z,97820.16
2023-01-05T02:46:16.799Z,97807.25
2023-01-05T02:48:46.525Z,97800.19
2023-01-05T02:51:18.304Z,97797.81
2023-01-05T02:53:50.282Z,97793.38
2023-01-05T02:56:29.393Z,97783.38
2023-01-05T02:59:00.962Z,97772.09
2023-01-05T03:01:34.443Z,97754.06
2023-01-05T03:04:15.023Z,97738.59
2023-01-05T03:06:59.662Z,97723.84
2023-01-05T03:09:36.736Z,97722.25
2023-01-05T03:12:51.223Z,97718.97
2023-01-05T03:15:32.878Z,97721.13
2023-01-05T03:18:06.146Z,97720.72
2023-01-05T03:20:34.583Z,97696.13
2023-01-05T03:23:23.858Z,97711.09
2023-01-05T03:26:11.899Z,97710.66
2023-01-05T03:29:28.130Z,97706.44
2023-01-05T03:32:19.548Z,97702.63
2023-01-05T03:35:17.262Z,97697.50
2023-01-05T03:37:48.848Z,97688.00
2023-01-05T03:40:22.589Z,97691.50
2023-01-05T03:42:49.606Z,97687.47
2023-01-05T03:45:17.300Z,97678.63
2023-01-05T03:47:43.936Z,97672.59
2023-01-05T03:50:10.957Z,97658.66
2023-01-05T03:52:37.552Z,97650.97
2023-01-05T03:55:04.472Z,97665.75
2023-01-05T03:57:31.129Z,97660.63
2023-01-05T03:59:57.670Z,97653.47
2023-01-05T04:02:24.399Z,97645.63
2023-01-05T04:04:51.138Z,97642.31
2023-01-05T04:07:17.795Z,97660.31
2023-01-05T04:09:44.364Z,97658.47
2023-01-05T04:12:10.944Z,97660.44
2023-01-05T04:14:37.512Z,97661.25
2023-01-05T04:17:04.100Z,97664.00
2023-01-05T04:19:30.729Z,97665.13
2023-01-05T04:21:57.306Z,97654.84
2023-01-05T04:24:23.907Z,97657.41
2023-01-05T04:26:50.566Z,97662.50
2023-01-05T04:29:17.158Z,97655.72
2023-01-05T04:31:43.736Z,97660.47
2023-01-05T04:34:10.431Z,97658.69
2023-01-05T04:36:37.007Z,97661.66
2023-01-05T04:39:03.667Z,97658.34
2023-01-05T04:41:30.297Z,97648.88
2023-01-05T04:43:56.881Z,97652.72
2023-01-05T04:46:23.519Z,97646.75
2023-01-05T04:48:50.190Z,97650.16
2023-01-05T04:51:16.752Z,97661.59
2023-01-05T04:53:43.495Z,97659.03
2023-01-05T04:56:10.742Z,97657.16
2023-01-05T04:58:37.376Z,97666.59
2023-01-05T05:01:04.044Z,97659.84
2023-01-05T05:03:33.112Z,97671.41
2023-01-05T05:06:00.237Z,97663.50
2023-01-05T05:08:26.849Z,97672.81
2023-01-05T05:10:53.425Z,97676.81
2023-01-05T05:13:20.038Z,97671.75
2023-01-05T05:15:46.819Z,97688.00
2023-01-05T05:18:13.424Z,97682.34
2023-01-05T05:20:43.971Z,97672.72
2023-01-05T05:23:10.567Z,97685.66
2023-01-05T05:25:37.049Z,97678.31
2023-01-05T05:28:03.665Z,97684.91
2023-01-05T05:30:30.397Z,97680.56
2023-01-05T05:32:56.991Z,97693.84
2023-01-05T05:35:23.560Z,97686.84
2023-01-05T05:37:56.033Z,97694.81
2023-01-05T05:40:23.185Z,97703.56
2023-01-05T05:42:49.758Z,97700.66
2023-01-05T05:45:16.513Z,97700.66
2023-01-05T05:47:43.813Z,97694.84
2023-01-05T05:50:11.021Z,97691.41
2023-01-05T05:52:37.740Z,97686.53
2023-01-05T05:55:05.180Z,97689.44
2023-01-05T05:57:31.794Z,97694.22
2023-01-05T05:59:58.359Z,97699.69
2023-01-05T06:02:24.946Z,97695.53
2023-01-05T06:04:51.569Z,97694.09
2023-01-05T06:07:18.151Z,97703.59
2023-01-05T06:09:44.709Z,97685.78
2023-01-05T06:12:11.365Z,97682.75
2023-01-05T06:14:37.989Z,97689.13
2023-01-05T06:17:04.563Z,97678.94
2023-01-05T06:19:31.167Z,97676.38
2023-01-05T06:21:57.717Z,97679.81
2023-01-05T06:24:24.401Z,97692.22
2023-01-05T06:26:51.002Z,97687.69
2023-01-05T06:29:17.586Z,97688.81
2023-01-05T06:31:44.223Z,97688.63
2023-01-05T06:34:10.737Z,97695.34
2023-01-05T06:36:37.353Z,97682.66
2023-01-05T06:39:04.126Z,97697.22
2023-01-05T06:41:30.904Z,97706.47
2023-01-05T06:43:57.487Z,97706.13
2023-01-05T06:46:24.185Z,97701.19
2023-01-05T06:48:51.338Z,97705.41
2023-01-05T06:51:18.152Z,97703.97
2023-01-05T06:53:44.803Z,97708.84
2023-01-05T06:56:11.422Z,97697.72
2023-01-05T06:58:38.019Z,97702.75
2023-01-05T07:01:04.947Z,97706.41
2023-01-05T07:03:31.728Z,97712.09
2023-01-05T07:05:58.395Z,97709.69
2023-01-05T07:08:25.047Z,97704.03
2023-01-05T07:10:54.618Z,97714.56
2023-01-05T07:13:21.610Z,97727.84
2023-01-05T07:15:48.205Z,97723.47
2023-01-05T07:18:14.781Z,97719.38
2023-01-05T07:20:41.372Z,97736.81
2023-01-05T07:23:07.974Z,97738.81
2023-01-05T07:25:34.570Z,97735.91
2023-01-05T07:28:01.158Z,97724.28
2023-01-05T07:30:27.983Z,97740.44
2023-01-05T07:32:58.829Z,97740.09
2023-01-05T07:35:25.519Z,97752.06
2023-01-05T07:37:52.204Z,97760.25
2023-01-05T07:40:18.797Z,97756.22
2023-01-05T07:42:50.563Z,97745.44
2023-01-05T07:45:17.186Z,97757.25
2023-01-05T07:47:43.754Z,97757.59
2023-01-05T07:50:10.668Z,97768.16
2023-01-05T07:52:37.279Z,97743.16
2023-01-05T07:55:04.035Z,97763.00
2023-01-05T07:57:30.871Z,97771.59
2023-01-05T07:59:57.480Z,97779.56
2023-01-05T08:02:24.145Z,97772.84
2023-01-05T08:04:50.770Z,97773.22
2023-01-05T08:07:17.331Z,97775.91
2023-01-05T08:10:02.591Z,97773.78
2023-01-05T08:12:30.925Z,97758.84
2023-01-05T08:14:57.500Z,97764.50
2023-01-05T08:17:24.315Z,97765.94
2023-01-05T08:19:50.923Z,97758.78
2023-01-05T08:22:17.506Z,97770.97
2023-01-05T08:24:44.096Z,97774.75
2023-01-05T08:27:10.729Z,97781.31
2023-01-05T08:29:37.363Z,97770.56
2023-01-05T08:32:04.186Z,97770.97
2023-01-05T08:34:34.666Z,97787.72
2023-01-05T08:37:01.605Z,97800.09
2023-01-05T08:39:28.170Z,97776.44
2023-01-05T08:42:00.474Z,97786.25
2023-01-05T08:44:29.022Z,97789.72
2023-01-05T08:46:55.665Z,97794.66
2023-01-05T08:49:22.375Z,97797.78
2023-01-05T08:51:48.943Z,97789.91
2023-01-05T08:54:15.494Z,97809.81
2023-01-05T08:56:43.277Z,97804.69
2023-01-05T08:59:13.481Z,97808.53
2023-01-05T09:01:40.275Z,97820.53
2023-01-05T09:04:07.173Z,97815.63
2023-01-05T09:06:34.172Z,97823.97
2023-01-05T09:09:00.824Z,97816.00
2023-01-05T09:11:27.528Z,97822.72
2023-01-05T09:13:59.285Z,97832.56
2023-01-05T09:17:04.758Z,97828.72
2023-01-05T09:19:16.052Z,97826.75
2023-01-05T09:21:42.673Z,97837.69
2023-01-05T09:24:14.343Z,97833.28
2023-01-05T09:26:42.378Z,97829.97
2023-01-05T09:29:09.882Z,97829.25
2023-01-05T09:31:36.481Z,97841.25
2023-01-05T09:34:03.156Z,97835.22
2023-01-05T09:36:29.815Z,97835.38
2023-01-05T09:38:57.096Z,97834.84
2023-01-05T09:41:34.965Z,97836.09
2023-01-05T09:44:31.797Z,97845.59
2023-01-05T09:47:10.171Z,97845.03
2023-01-05T09:49:39.250Z,97851.41
2023-01-05T09:52:10.595Z,97864.38
2023-01-05T09:54:38.871Z,97860.94
2023-01-05T09:57:09.880Z,97858.94
2023-01-05T09:59:50.183Z,97860.94
2023-01-05T10:02:33.880Z,97862.88
2023-01-05T10:05:02.573Z,97871.69
2023-01-05T10:07:46.241Z,97882.69
2023-01-05T10:10:30.910Z,97872.19
2023-01-05T10:13:03.373Z,97883.66
2023-01-05T10:15:46.020Z,97879.47
2023-01-05T10:18:26.317Z,97878.22
2023-01-05T10:21:34.319Z,97876.22
2023-01-05T10:25:02.414Z,97877.31
2023-01-05T10:27:43.204Z,97872.03
2023-01-05T10:30:32.176Z,97860.75
2023-01-05T10:33:26.654Z,97861.31
2023-01-05T10:37:06.676Z,97868.56
2023-01-05T10:40:00.366Z,97862.19
2023-01-05T10:43:11.352Z,97865.28
2023-01-05T10:45:57.353Z,97864.41
2023-01-05T10:48:31.741Z,97866.94
2023-01-05T10:50:58.696Z,97870.22
2023-01-05T10:53:27.671Z,97847.47
2023-01-05T10:56:12.498Z,97858.38
2023-01-05T10:58:42.412Z,97868.72
2023-01-05T11:01:29.708Z,97876.31
2023-01-05T11:04:34.442Z,97877.22
2023-01-05T11:07:06.456Z,97876.06
2023-01-05T11:09:40.032Z,97864.94
2023-01-05T11:12:22.425Z,97895.84
2023-01-05T11:14:58.116Z,97893.84
2023-01-05T11:17:28.374Z,97915.22
2023-01-05T11:19:57.313Z,97933.06
2023-01-05T11:22:39.905Z,97921.03
2023-01-05T11:25:33.419Z,97923.91
2023-01-05T11:28:17.863Z,97922.09
2023-01-05T11:31:03.730Z,97925.75
2023-01-05T11:33:34.819Z,97923.41
2023-01-05T11:36:03.870Z,97923.09
2023-01-05T11:38:31.920Z,97922.00
2023-01-05T11:41:00.884Z,97914.75
2023-01-05T11:43:31.009Z,97922.94
2023-01-05T11:46:03.540Z,97923.31
2023-01-05T11:48:34.649Z,97929.50
2023-01-05T11:51:02.737Z,97914.25
2023-01-05T11:53:40.295Z,97916.09
2023-01-05T11:56:32.978Z,97899.22
2023-01-05T11:58:59.579Z,97904.66
2023-01-05T12:02:16.840Z,97896.47
2023-01-05T12:05:01.634Z,97913.41
2023-01-05T12:07:45.077Z,97908.69
2023-01-05T12:10:41.339Z,97913.78
2023-01-05T12:13:38.407Z,97915.41
2023-01-05T12:16:40.658Z,97916.69
2023-01-05T12:19:44.725Z,97924.81
2023-01-05T12:22:54.475Z,97916.13
2023-01-05T12:25:43.640Z,97931.94
2023-01-05T12:30:07.887Z,97925.63
2023-01-05T12:35:36.891Z,97950.31
2023-01-05T12:38:42.020Z,97952.69
2023-01-05T12:41:11.367Z,97957.63
2023-01-05T12:44:14.665Z,97962.28
2023-01-05T12:47:16.419Z,97971.94
2023-01-05T12:49:45.707Z,97967.94
2023-01-05T12:52:25.333Z,97948.28
2023-01-05T12:55:22.347Z,97961.03
2023-01-05T12:57:58.300Z,97974.47
2023-01-05T13:00:28.995Z,97986.44
2023-01-05T13:03:00.629Z,97994.28
2023-01-05T13:05:52.271Z,97996.31
2023-01-05T13:08:44.839Z,97991.75
2023-01-05T13:11:33.876Z,97999.38
2023-01-05T13:14:05.854Z,98004.50
2023-01-05T13:16:41.867Z,98005.53
2023-01-05T13:19:48.305Z,98006.59
2023-01-05T13:22:23.285Z,98003.53
2023-01-05T13:24:57.240Z,98010.44
2023-01-05T13:27:23.812Z,98019.69
2023-01-05T13:29:57.351Z,98011.47
2023-01-05T13:32:44.356Z,98017.09
2023-01-05T13:35:26.415Z,98016.72
2023-01-05T13:38:47.063Z,98016.66
2023-01-05T13:41:45.151Z,98007.09
2023-01-05T13:50:55.019Z,98007.03
2023-01-05T13:53:27.579Z,98004.69
2023-01-05T13:55:53.995Z,98008.28
2023-01-05T14:01:04.927Z,98004.13
2023-01-05T14:03:50.568Z,98004.97
2023-01-05T14:06:23.249Z,98001.91
2023-01-05T14:09:02.230Z,98009.56
2023-01-05T14:11:29.436Z,98009.34
2023-01-05T14:14:04.925Z,98004.13
2023-01-05T14:16:34.291Z,98011.53
2023-01-05T14:19:14.437Z,98011.34
2023-01-05T14:22:00.209Z,98030.50
2023-01-05T14:27:14.676Z,98015.94
2023-01-05T14:29:44.310Z,98028.31
2023-01-05T14:32:38.053Z,98016.53
2023-01-05T14:35:20.162Z,98031.22
2023-01-05T14:37:54.861Z,98030.34
2023-01-05T14:40:35.367Z,98036.34
2023-01-05T14:43:06.960Z,98041.97
2023-01-05T14:45:37.118Z,98046.19
2023-01-05T14:48:10.097Z,98038.53
2023-01-05T14:50:41.748Z,98035.84
2023-01-05T14:53:34.459Z,98029.66
2023-01-05T14:56:23.217Z,98041.28
2023-01-05T14:58:56.483Z,98041.28
2023-01-05T15:01:33.835Z,98033.84
2023-01-05T15:04:03.432Z,98047.28
2023-01-05T15:06:48.696Z,98051.72
2023-01-05T15:09:42.835Z,98040.97
2023-01-05T15:13:03.931Z,98043.16
2023-01-05T15:16:01.853Z,98038.41
2023-01-05T15:18:54.265Z,98050.19
2023-01-05T15:22:12.830Z,98039.28
2023-01-05T15:25:14.798Z,98043.16
2023-01-05T15:28:05.813Z,98039.53
2023-01-05T15:31:08.101Z,98038.97
2023-01-05T15:34:15.891Z,98042.94
2023-01-05T15:36:57.197Z,98055.97
2023-01-05T15:39:30.418Z,98052.06
2023-01-05T15:42:00.845Z,98058.03
2023-01-05T15:44:34.062Z,98043.31
2023-01-05T15:47:02.373Z,98046.78
2023-01-05T15:49:31.377Z,98048.41
2023-01-05T15:51:58.188Z,98047.31
2023-01-05T15:54:27.589Z,98057.34
2023-01-05T15:56:54.659Z,98063.13
2023-01-05T15:59:32.244Z,98054.41
2023-01-05T16:01:59.334Z,98064.19
2023-01-05T16:04:26.763Z,98063.31
2023-01-05T16:06:58.966Z,98065.81
2023-01-05T16:09:32.059Z,98069.94
2023-01-05T16:12:08.780Z,98070.00
2023-01-05T16:14:45.401Z,98074.72
2023-01-05T16:17:19.643Z,98076.94
2023-01-05T16:19:52.110Z,98072.38
2023-01-05T16:22:49.126Z,98065.81
2023-01-05T16:25:21.087Z,98081.78
2023-01-05T16:27:50.381Z,98081.06
2023-01-05T16:30:49.985Z,98082.34
2023-01-05T16:33:30.258Z,98087.31
2023-01-05T16:36:12.756Z,98088.97
2023-01-05T16:38:40.693Z,98090.34
2023-01-05T16:41:10.501Z,98082.53
2023-01-05T16:44:05.112Z,98090.31
2023-01-05T16:46:39.021Z,98103.75
2023-01-05T16:49:26.428Z,98101.69
2023-01-05T16:51:55.110Z,98106.59
2023-01-05T16:54:39.242Z,98099.47
2023-01-05T16:57:33.888Z,98092.31
2023-01-05T17:00:00.479Z,98098.09
2023-01-05T17:02:38.316Z,98115.50
2023-01-05T17:05:06.264Z,98109.41
2023-01-05T17:07:34.479Z,98116.81
2023-01-05T17:10:01.107Z,98113.84
2023-01-05T17:12:27.861Z,98110.59
2023-01-05T17:14:58.749Z,98121.28
2023-01-05T17:17:27.110Z,98123.25
2023-01-05T17:19:54.167Z,98124.75
2023-01-05T17:22:21.145Z,98133.81
2023-01-05T17:24:48.199Z,98138.94
2023-01-05T17:27:14.849Z,98138.00
2023-01-05T17:29:41.474Z,98133.53
2023-01-05T17:32:11.091Z,98131.13
2023-01-05T17:34:39.587Z,98134.25
2023-01-05T17:37:07.324Z,98145.47
2023-01-05T17:39:33.948Z,98144.44
2023-01-05T17:42:22.622Z,98147.81
2023-01-05T17:44:51.938Z,98154.44
2023-01-05T17:47:18.716Z,98161.88
2023-01-05T17:49:45.307Z,98153.50
2023-01-05T17:52:13.792Z,98152.75
2023-01-05T17:54:41.749Z,98157.06
2023-01-05T17:57:12.127Z,98168.25
2023-01-05T17:59:38.830Z,98170.44
2023-01-05T18:02:05.744Z,98166.66
2023-01-05T18:04:32.355Z,98167.41
2023-01-05T18:07:00.333Z,98169.81
2023-01-05T18:09:26.911Z,98161.56
2023-01-05T18:11:53.557Z,98171.91
2023-01-05T18:14:20.352Z,98161.34
2023-01-05T18:16:46.917Z,98160.59
2023-01-05T18:21:46.453Z,98159.88
2023-01-05T18:24:13.051Z,98162.81
2023-01-05T18:26:39.620Z,98162.81
2023-01-05T18:29:06.264Z,98164.38
2023-01-05T18:31:34.853Z,98170.22
2023-01-05T18:34:03.783Z,98165.84
2023-01-05T18:36:30.364Z,98171.41
2023-01-05T18:38:56.951Z,98171.06
2023-01-05T18:41:25.019Z,98170.66
2023-01-05T18:43:51.677Z,98185.84
2023-01-05T18:46:18.287Z,98181.66
2023-01-05T18:48:49.895Z,98188.03
2023-01-05T18:51:17.387Z,98184.28
2023-01-05T18:53:44.034Z,98202.06
2023-01-05T18:56:12.365Z,98190.34
2023-01-05T18:58:38.957Z,98196.28
2023-01-05T19:01:15.114Z,98192.97
2023-01-05T19:03:41.860Z,98192.44
2023-01-05T19:06:12.324Z,98196.72
2023-01-05T19:08:39.568Z,98195.56
2023-01-05T19:11:17.595Z,98195.97
2023-01-05T19:13:49.188Z,98208.13
2023-01-05T19:16:20.678Z,98202.69
2023-01-05T19:18:53.055Z,98204.56
2023-01-05T19:21:20.597Z,98202.38
2023-01-05T19:23:47.163Z,98205.41
2023-01-05T19:26:13.804Z,98203.75
2023-01-05T19:28:40.543Z,98213.66
2023-01-05T19:31:14.709Z,98214.81
2023-01-05T19:33:42.215Z,98222.56
2023-01-05T19:36:15.378Z,98222.66
2023-01-05T19:38:42.855Z,98222.22
2023-01-05T19:41:13.105Z,98224.75
2023-01-05T19:43:41.227Z,98217.00
2023-01-05T19:46:13.187Z,98224.63
2023-01-05T19:48:41.969Z,98232.06
2023-01-05T19:51:11.823Z,98242.31
2023-01-05T19:53:40.062Z,98239.06
2023-01-05T19:56:09.147Z,98243.06
2023-01-05T19:58:35.873Z,98236.88
2023-01-05T20:01:13.632Z,98229.03
2023-01-05T20:03:41.690Z,98232.47
2023-01-05T20:06:13.751Z,98247.22
2023-01-05T20:08:40.477Z,98242.22
2023-01-05T20:11:12.606Z,98233.31
2023-01-05T20:13:40.217Z,98238.16
2023-01-05T20:16:10.335Z,98237.63
2023-01-05T20:18:38.318Z,98248.19
2023-01-05T20:21:07.096Z,98257.53
2023-01-05T20:23:37.510Z,98253.53
2023-01-05T20:26:07.340Z,98254.25
2023-01-05T20:28:33.904Z,98254.78
2023-01-05T20:31:00.557Z,98264.22
2023-01-05T20:33:27.148Z,98259.50
2023-01-05T20:35:53.807Z,98254.38
2023-01-05T20:38:20.512Z,98252.38
2023-01-05T20:40:47.054Z,98260.66
2023-01-05T20:43:13.655Z,98266.84
2023-01-05T20:45:40.371Z,98262.13
2023-01-05T20:48:06.965Z,98270.59
2023-01-05T20:50:33.510Z,98268.50
2023-01-05T20:53:00.391Z,98277.91
2023-01-05T20:55:26.978Z,98285.25
2023-01-05T20:57:53.596Z,98279.91
2023-01-05T21:00:20.197Z,98289.97
2023-01-05T21:02:48.413Z,98295.28
2023-01-05T21:05:15.218Z,98299.34
2023-01-05T21:07:41.945Z,98302.19
2023-01-05T21:10:08.798Z,98305.88
2023-01-05T21:12:35.368Z,98305.97
2023-01-05T21:15:02.103Z,98304.63
2023-01-05T21:17:28.715Z,98310.06
2023-01-05T21:19:55.357Z,98302.63
2023-01-05T21:22:22.011Z,98288.72
2023-01-05T21:24:48.556Z,98297.94
2023-01-05T21:27:15.232Z,98287.13
2023-01-05T21:29:42.433Z,98300.53
2023-01-05T21:32:09.043Z,98307.75
2023-01-05T21:34:35.645Z,98305.13
2023-01-05T21:37:02.296Z,98313.72
2023-01-05T21:39:28.897Z,98319.03
2023-01-05T21:42:14.456Z,98313.91
2023-01-05T21:44:41.158Z,98318.22
2023-01-05T21:47:08.422Z,98318.13
2023-01-05T21:49:36.108Z,98317.59
2023-01-05T21:52:21.659Z,98320.63
2023-01-05T21:55:06.923Z,98323.44
2023-01-05T21:57:33.482Z,98322.50
2023-01-05T22:00:00.085Z,98334.09
2023-01-05T22:02:26.707Z,98330.03
2023-01-05T22:04:53.275Z,98339.66
2023-01-05T22:07:19.881Z,98335.88
2023-01-05T22:09:46.450Z,98338.09
2023-01-05T22:12:13.121Z,98345.09
2023-01-05T22:14:39.741Z,98349.16
2023-01-05T22:17:08.261Z,98349.09
2023-01-05T22:19:35.204Z,98355.88
2023-01-05T22:22:01.783Z,98354.94
2023-01-05T22:24:28.381Z,98351.28
2023-01-05T22:26:54.936Z,98361.31
2023-01-05T22:29:21.662Z,98354.66
2023-01-05T22:31:50.533Z,98355.38
2023-01-05T22:34:17.281Z,98360.94
2023-01-05T22:36:43.972Z,98358.44
2023-01-05T22:39:10.624Z,98358.13
2023-01-05T22:41:37.183Z,98355.41
2023-01-05T22:44:04.404Z,98354.56
2023-01-05T22:46:31.251Z,98348.88
2023-01-05T22:48:58.908Z,98355.09
2023-01-05T22:51:33.653Z,98353.09
2023-01-05T22:54:00.878Z,98344.06
2023-01-05T22:56:29.369Z,98346.06
2023-01-05T22:58:56.868Z,98343.13
2023-01-05T23:01:29.465Z,98340.19
2023-01-05T23:03:56.790Z,98352.75
2023-01-05T23:06:24.278Z,98353.81
2023-01-05T23:08:52.337Z,98339.16
2023-01-05T23:11:31.070Z,98344.38
2023-01-05T23:13:59.263Z,98343.66
2023-01-05T23:16:26.521Z,98347.53
2023-01-05T23:18:53.337Z,98344.59
2023-01-05T23:21:22.427Z,98339.06
2023-01-05T23:23:51.105Z,98334.56
2023-01-05T23:26:17.733Z,98329.09
2023-01-05T23:28:45.302Z,98331.72
2023-01-05T23:31:14.606Z,98325.56
2023-01-05T23:33:42.600Z,98326.69
2023-01-05T23:36:10.365Z,98324.69
2023-01-05T23:38:37.514Z,98327.22
2023-01-05T23:41:06.399Z,98329.53
2023-01-05T23:43:33.680Z,98324.41
2023-01-05T23:46:03.813Z,98325.22
2023-01-05T23:48:31.179Z,98319.56
2023-01-05T23:50:58.399Z,98320.91
2023-01-05T23:53:26.140Z,98325.94
2023-01-05T23:55:53.611Z,98317.56
2023-01-05T23:58:20.230Z,98317.78
